LFSG/EPL METAR and TAF weather

Enter ICAO airport designator
Station Type Date Time Source
LFSG METAR 2021/07/26 15:30 UTC NOAA

LFSG 261530Z AUTO 23008KT 170V260 9999 BKN043/// BKN052/// BKN066/// ///CB 23/15 Q1013


Station Type Date Time Source
LFSG Decoded METAR 2021/07/26 15:30 UTC NOAA

Station name not available
Jul 26, 2021 - 11:30 AM EDT / 2021.07.26 1530 UTC
Wind: from the SW (230 degrees) at 9 MPH (8 KT) (direction variable):0
Visibility: greater than 7 mile(s):0
Sky conditions: mostly cloudy
Weather: Cumulonimbus clouds observed
Temperature: 73 F (23 C)
Dew Point: 59 F (15 C)
Relative Humidity: 60%
Pressure (altimeter): 29.91 in. Hg (1013 hPa)
ob: LFSG 261530Z AUTO 23008KT 170V260 9999 BKN043/// BKN052/// BKN066/// ///CB 23/15 Q1013
cycle: 15

Station Type Date Time Source
LFSG TAF UTC NOAA

Error!

Example: see airport list